sensor_id;sensor_type;location;lat;lon;timestamp;P1;durP1;ratioP1;P2;durP2;ratioP2
68579;SDS011;55555;52.136;5.424;2022-08-14T00:01:46;12.32;;;6.05;;
68579;SDS011;55555;52.136;5.424;2022-08-14T00:04:20;8.55;;;5.93;;
68579;SDS011;55555;52.136;5.424;2022-08-14T00:07:08;9.07;;;5.43;;
68579;SDS011;55555;52.136;5.424;2022-08-14T00:09:39;10.27;;;5.88;;
68579;SDS011;55555;52.136;5.424;2022-08-14T00:12:27;8.40;;;6.13;;
68579;SDS011;55555;52.136;5.424;2022-08-14T00:15:14;7.88;;;5.60;;
68579;SDS011;55555;52.136;5.424;2022-08-14T00:18:02;8.55;;;5.43;;
68579;SDS011;55555;52.136;5.424;2022-08-14T00:20:33;9.23;;;5.70;;
68579;SDS011;55555;52.136;5.424;2022-08-14T00:23:09;12.73;;;5.90;;
68579;SDS011;55555;52.136;5.424;2022-08-14T00:25:45;9.57;;;5.97;;
68579;SDS011;55555;52.136;5.424;2022-08-14T00:28:31;8.68;;;5.80;;
68579;SDS011;55555;52.136;5.424;2022-08-14T00:31:00;8.98;;;6.05;;
68579;SDS011;55555;52.136;5.424;2022-08-14T00:33:29;12.07;;;6.20;;
68579;SDS011;55555;52.136;5.424;2022-08-14T00:36:16;9.82;;;6.22;;
68579;SDS011;55555;52.136;5.424;2022-08-14T00:39:03;14.07;;;6.40;;
68579;SDS011;55555;52.136;5.424;2022-08-14T00:41:31;10.05;;;6.30;;
68579;SDS011;55555;52.136;5.424;2022-08-14T00:43:59;7.90;;;5.80;;
68579;SDS011;55555;52.136;5.424;2022-08-14T00:46:26;8.10;;;5.63;;
68579;SDS011;55555;52.136;5.424;2022-08-14T00:48:58;9.00;;;5.95;;
68579;SDS011;55555;52.136;5.424;2022-08-14T00:51:27;9.48;;;6.32;;
68579;SDS011;55555;52.136;5.424;2022-08-14T00:54:04;8.93;;;6.32;;
68579;SDS011;55555;52.136;5.424;2022-08-14T00:56:48;10.05;;;6.43;;
68579;SDS011;55555;52.136;5.424;2022-08-14T00:59:21;10.77;;;6.37;;
68579;SDS011;55555;52.136;5.424;2022-08-14T01:01:55;9.13;;;6.75;;
68579;SDS011;55555;52.136;5.424;2022-08-14T01:04:25;10.00;;;6.93;;
68579;SDS011;55555;52.136;5.424;2022-08-14T01:07:14;10.27;;;6.00;;
68579;SDS011;55555;52.136;5.424;2022-08-14T01:09:55;9.88;;;6.72;;
68579;SDS011;55555;52.136;5.424;2022-08-14T01:12:30;9.13;;;6.10;;
68579;SDS011;55555;52.136;5.424;2022-08-14T01:15:05;10.18;;;6.65;;
68579;SDS011;55555;52.136;5.424;2022-08-14T01:17:35;9.25;;;7.20;;
68579;SDS011;55555;52.136;5.424;2022-08-14T01:20:20;12.13;;;7.18;;
68579;SDS011;55555;52.136;5.424;2022-08-14T01:23:15;9.70;;;7.25;;
68579;SDS011;55555;52.136;5.424;2022-08-14T01:25:45;10.60;;;7.13;;
68579;SDS011;55555;52.136;5.424;2022-08-14T01:28:17;9.85;;;7.15;;
68579;SDS011;55555;52.136;5.424;2022-08-14T01:31:08;10.43;;;7.45;;
68579;SDS011;55555;52.136;5.424;2022-08-14T01:33:41;10.07;;;7.55;;
68579;SDS011;55555;52.136;5.424;2022-08-14T01:36:33;10.15;;;7.03;;
68579;SDS011;55555;52.136;5.424;2022-08-14T01:39:09;12.03;;;7.47;;
68579;SDS011;55555;52.136;5.424;2022-08-14T01:41:39;10.90;;;7.43;;
68579;SDS011;55555;52.136;5.424;2022-08-14T01:44:12;10.48;;;7.53;;
68579;SDS011;55555;52.136;5.424;2022-08-14T01:47:02;9.90;;;7.22;;
68579;SDS011;55555;52.136;5.424;2022-08-14T01:49:47;11.93;;;7.90;;
68579;SDS011;55555;52.136;5.424;2022-08-14T01:52:29;10.17;;;7.57;;
68579;SDS011;55555;52.136;5.424;2022-08-14T01:55:18;9.80;;;7.60;;
68579;SDS011;55555;52.136;5.424;2022-08-14T01:57:46;12.50;;;8.30;;
68579;SDS011;55555;52.136;5.424;2022-08-14T02:00:27;11.18;;;7.50;;
68579;SDS011;55555;52.136;5.424;2022-08-14T02:03:01;11.02;;;8.00;;
68579;SDS011;55555;52.136;5.424;2022-08-14T02:05:32;11.27;;;8.47;;
68579;SDS011;55555;52.136;5.424;2022-08-14T02:08:04;13.80;;;8.65;;
68579;SDS011;55555;52.136;5.424;2022-08-14T02:10:35;12.65;;;8.43;;
68579;SDS011;55555;52.136;5.424;2022-08-14T02:13:12;15.00;;;8.55;;
68579;SDS011;55555;52.136;5.424;2022-08-14T02:15:42;13.50;;;8.52;;
68579;SDS011;55555;52.136;5.424;2022-08-14T02:18:10;14.03;;;8.73;;
68579;SDS011;55555;52.136;5.424;2022-08-14T02:20:40;14.80;;;9.40;;
68579;SDS011;55555;52.136;5.424;2022-08-14T02:23:07;15.43;;;8.90;;
68579;SDS011;55555;52.136;5.424;2022-08-14T02:25:37;12.02;;;8.63;;
68579;SDS011;55555;52.136;5.424;2022-08-14T02:28:04;14.75;;;9.65;;
68579;SDS011;55555;52.136;5.424;2022-08-14T02:30:52;16.07;;;9.13;;
68579;SDS011;55555;52.136;5.424;2022-08-14T02:33:19;11.43;;;8.48;;
68579;SDS011;55555;52.136;5.424;2022-08-14T02:35:47;12.68;;;8.90;;
68579;SDS011;55555;52.136;5.424;2022-08-14T02:38:30;14.60;;;9.93;;
68579;SDS011;55555;52.136;5.424;2022-08-14T02:41:00;12.18;;;8.65;;
68579;SDS011;55555;52.136;5.424;2022-08-14T02:43:34;11.30;;;8.50;;
68579;SDS011;55555;52.136;5.424;2022-08-14T02:46:13;11.10;;;8.65;;
68579;SDS011;55555;52.136;5.424;2022-08-14T02:48:52;11.60;;;8.48;;
68579;SDS011;55555;52.136;5.424;2022-08-14T02:51:30;11.98;;;8.65;;
68579;SDS011;55555;52.136;5.424;2022-08-14T02:53:58;11.57;;;8.77;;
68579;SDS011;55555;52.136;5.424;2022-08-14T02:56:26;12.27;;;8.60;;
68579;SDS011;55555;52.136;5.424;2022-08-14T02:59:14;11.20;;;9.00;;
68579;SDS011;55555;52.136;5.424;2022-08-14T03:01:43;11.77;;;9.30;;
68579;SDS011;55555;52.136;5.424;2022-08-14T03:04:19;13.40;;;9.68;;
68579;SDS011;55555;52.136;5.424;2022-08-14T03:06:47;14.57;;;9.95;;
68579;SDS011;55555;52.136;5.424;2022-08-14T03:09:33;13.77;;;10.27;;
68579;SDS011;55555;52.136;5.424;2022-08-14T03:12:24;15.23;;;9.82;;
68579;SDS011;55555;52.136;5.424;2022-08-14T03:14:57;12.70;;;9.82;;
68579;SDS011;55555;52.136;5.424;2022-08-14T03:17:30;13.15;;;9.52;;
68579;SDS011;55555;52.136;5.424;2022-08-14T03:20:17;15.45;;;10.02;;
68579;SDS011;55555;52.136;5.424;2022-08-14T03:22:47;12.83;;;9.20;;
68579;SDS011;55555;52.136;5.424;2022-08-14T03:25:16;16.42;;;10.13;;
68579;SDS011;55555;52.136;5.424;2022-08-14T03:27:44;14.68;;;10.75;;
68579;SDS011;55555;52.136;5.424;2022-08-14T03:30:24;15.15;;;10.40;;
68579;SDS011;55555;52.136;5.424;2022-08-14T03:33:06;16.73;;;10.13;;
68579;SDS011;55555;52.136;5.424;2022-08-14T03:35:36;14.30;;;10.03;;
68579;SDS011;55555;52.136;5.424;2022-08-14T03:38:25;14.25;;;10.63;;
68579;SDS011;55555;52.136;5.424;2022-08-14T03:41:14;15.45;;;11.25;;
68579;SDS011;55555;52.136;5.424;2022-08-14T03:43:49;16.60;;;10.05;;
68579;SDS011;55555;52.136;5.424;2022-08-14T03:46:36;13.18;;;10.15;;
68579;SDS011;55555;52.136;5.424;2022-08-14T03:49:21;15.70;;;11.77;;
68579;SDS011;55555;52.136;5.424;2022-08-14T03:51:55;20.92;;;10.75;;
68579;SDS011;55555;52.136;5.424;2022-08-14T03:54:43;15.70;;;11.30;;
68579;SDS011;55555;52.136;5.424;2022-08-14T03:57:17;16.75;;;12.13;;
68579;SDS011;55555;52.136;5.424;2022-08-14T03:59:48;17.77;;;11.10;;
68579;SDS011;55555;52.136;5.424;2022-08-14T04:02:15;14.83;;;10.33;;
68579;SDS011;55555;52.136;5.424;2022-08-14T04:05:02;14.65;;;11.55;;
68579;SDS011;55555;52.136;5.424;2022-08-14T04:07:38;16.00;;;11.80;;
68579;SDS011;55555;52.136;5.424;2022-08-14T04:10:25;17.40;;;12.05;;
68579;SDS011;55555;52.136;5.424;2022-08-14T04:12:57;16.50;;;11.70;;
68579;SDS011;55555;52.136;5.424;2022-08-14T04:15:29;15.70;;;11.50;;
68579;SDS011;55555;52.136;5.424;2022-08-14T04:18:18;15.68;;;11.32;;
68579;SDS011;55555;52.136;5.424;2022-08-14T04:20:45;18.17;;;11.98;;
68579;SDS011;55555;52.136;5.424;2022-08-14T04:23:20;19.88;;;12.32;;
68579;SDS011;55555;52.136;5.424;2022-08-14T04:25:59;17.02;;;10.90;;
68579;SDS011;55555;52.136;5.424;2022-08-14T04:28:28;14.90;;;11.33;;
68579;SDS011;55555;52.136;5.424;2022-08-14T04:31:19;15.63;;;12.10;;
68579;SDS011;55555;52.136;5.424;2022-08-14T04:34:08;15.50;;;11.85;;
68579;SDS011;55555;52.136;5.424;2022-08-14T04:36:46;15.95;;;11.57;;
68579;SDS011;55555;52.136;5.424;2022-08-14T04:39:33;18.15;;;12.55;;
68579;SDS011;55555;52.136;5.424;2022-08-14T04:42:23;17.20;;;11.90;;
68579;SDS011;55555;52.136;5.424;2022-08-14T04:45:16;17.20;;;12.27;;
68579;SDS011;55555;52.136;5.424;2022-08-14T04:47:45;16.98;;;11.45;;
68579;SDS011;55555;52.136;5.424;2022-08-14T04:50:35;18.05;;;12.68;;
68579;SDS011;55555;52.136;5.424;2022-08-14T04:53:11;15.65;;;11.98;;
68579;SDS011;55555;52.136;5.424;2022-08-14T04:55:48;17.97;;;12.80;;
68579;SDS011;55555;52.136;5.424;2022-08-14T04:58:18;15.73;;;11.52;;
68579;SDS011;55555;52.136;5.424;2022-08-14T05:00:58;15.93;;;12.85;;
68579;SDS011;55555;52.136;5.424;2022-08-14T05:03:29;18.98;;;13.57;;
68579;SDS011;55555;52.136;5.424;2022-08-14T05:06:03;17.63;;;12.30;;
68579;SDS011;55555;52.136;5.424;2022-08-14T05:08:53;17.60;;;11.50;;
68579;SDS011;55555;52.136;5.424;2022-08-14T05:11:25;19.88;;;13.68;;
68579;SDS011;55555;52.136;5.424;2022-08-14T05:13:55;17.85;;;11.43;;
68579;SDS011;55555;52.136;5.424;2022-08-14T05:16:42;17.20;;;12.30;;
68579;SDS011;55555;52.136;5.424;2022-08-14T05:19:12;19.02;;;13.23;;
68579;SDS011;55555;52.136;5.424;2022-08-14T05:21:51;21.87;;;14.23;;
68579;SDS011;55555;52.136;5.424;2022-08-14T05:24:42;20.17;;;12.98;;
68579;SDS011;55555;52.136;5.424;2022-08-14T05:27:16;17.27;;;13.18;;
68579;SDS011;55555;52.136;5.424;2022-08-14T05:29:49;18.75;;;12.52;;
68579;SDS011;55555;52.136;5.424;2022-08-14T05:32:18;17.95;;;13.07;;
68579;SDS011;55555;52.136;5.424;2022-08-14T05:34:45;21.57;;;13.00;;
68579;SDS011;55555;52.136;5.424;2022-08-14T05:37:12;18.05;;;12.90;;
68579;SDS011;55555;52.136;5.424;2022-08-14T05:39:40;21.80;;;14.20;;
68579;SDS011;55555;52.136;5.424;2022-08-14T05:42:08;15.93;;;12.77;;
68579;SDS011;55555;52.136;5.424;2022-08-14T05:44:51;18.35;;;11.82;;
68579;SDS011;55555;52.136;5.424;2022-08-14T05:47:21;20.37;;;13.00;;
68579;SDS011;55555;52.136;5.424;2022-08-14T05:49:48;18.95;;;13.07;;
68579;SDS011;55555;52.136;5.424;2022-08-14T05:52:16;19.17;;;13.73;;
68579;SDS011;55555;52.136;5.424;2022-08-14T05:55:04;20.42;;;13.65;;
68579;SDS011;55555;52.136;5.424;2022-08-14T05:57:44;18.35;;;13.45;;
68579;SDS011;55555;52.136;5.424;2022-08-14T06:00:20;18.20;;;13.33;;
68579;SDS011;55555;52.136;5.424;2022-08-14T06:03:02;17.80;;;13.07;;
68579;SDS011;55555;52.136;5.424;2022-08-14T06:05:34;23.10;;;13.88;;
68579;SDS011;55555;52.136;5.424;2022-08-14T06:08:04;18.90;;;13.70;;
68579;SDS011;55555;52.136;5.424;2022-08-14T06:11:02;20.83;;;13.88;;
68579;SDS011;55555;52.136;5.424;2022-08-14T06:13:33;20.80;;;13.40;;
68579;SDS011;55555;52.136;5.424;2022-08-14T06:16:10;19.17;;;12.90;;
68579;SDS011;55555;52.136;5.424;2022-08-14T06:18:44;18.52;;;13.10;;
68579;SDS011;55555;52.136;5.424;2022-08-14T06:21:17;17.30;;;13.10;;
68579;SDS011;55555;52.136;5.424;2022-08-14T06:23:47;20.52;;;13.40;;
68579;SDS011;55555;52.136;5.424;2022-08-14T06:26:14;24.13;;;13.20;;
68579;SDS011;55555;52.136;5.424;2022-08-14T06:28:47;18.80;;;13.35;;
68579;SDS011;55555;52.136;5.424;2022-08-14T06:31:17;19.20;;;12.18;;
68579;SDS011;55555;52.136;5.424;2022-08-14T06:33:46;16.70;;;13.07;;
68579;SDS011;55555;52.136;5.424;2022-08-14T06:36:33;18.60;;;13.10;;
68579;SDS011;55555;52.136;5.424;2022-08-14T06:39:04;17.20;;;12.77;;
68579;SDS011;55555;52.136;5.424;2022-08-14T06:41:35;15.65;;;11.57;;
68579;SDS011;55555;52.136;5.424;2022-08-14T06:44:25;17.02;;;12.00;;
68579;SDS011;55555;52.136;5.424;2022-08-14T06:46:58;15.25;;;11.45;;
68579;SDS011;55555;52.136;5.424;2022-08-14T06:49:27;21.33;;;12.88;;
68579;SDS011;55555;52.136;5.424;2022-08-14T06:51:55;17.87;;;12.20;;
68579;SDS011;55555;52.136;5.424;2022-08-14T06:54:22;22.33;;;11.38;;
68579;SDS011;55555;52.136;5.424;2022-08-14T06:56:57;15.90;;;12.13;;
68579;SDS011;55555;52.136;5.424;2022-08-14T06:59:24;14.38;;;11.63;;
68579;SDS011;55555;52.136;5.424;2022-08-14T07:01:52;18.00;;;12.02;;
68579;SDS011;55555;52.136;5.424;2022-08-14T07:04:42;16.13;;;11.10;;
68579;SDS011;55555;52.136;5.424;2022-08-14T07:07:37;16.67;;;11.20;;
68579;SDS011;55555;52.136;5.424;2022-08-14T07:10:08;13.85;;;10.77;;
68579;SDS011;55555;52.136;5.424;2022-08-14T07:12:42;16.38;;;10.35;;
68579;SDS011;55555;52.136;5.424;2022-08-14T07:15:29;15.60;;;11.35;;
68579;SDS011;55555;52.136;5.424;2022-08-14T07:18:08;16.17;;;10.73;;
68579;SDS011;55555;52.136;5.424;2022-08-14T07:20:36;13.30;;;10.88;;
68579;SDS011;55555;52.136;5.424;2022-08-14T07:23:05;15.73;;;9.85;;
68579;SDS011;55555;52.136;5.424;2022-08-14T07:25:42;12.82;;;9.98;;
68579;SDS011;55555;52.136;5.424;2022-08-14T07:28:31;14.32;;;10.30;;
68579;SDS011;55555;52.136;5.424;2022-08-14T07:31:09;14.47;;;9.77;;
68579;SDS011;55555;52.136;5.424;2022-08-14T07:33:41;15.52;;;10.52;;
68579;SDS011;55555;52.136;5.424;2022-08-14T07:36:17;12.30;;;8.82;;
68579;SDS011;55555;52.136;5.424;2022-08-14T07:38:55;12.30;;;9.30;;
68579;SDS011;55555;52.136;5.424;2022-08-14T07:41:24;13.50;;;8.38;;
68579;SDS011;55555;52.136;5.424;2022-08-14T07:43:59;12.50;;;8.13;;
68579;SDS011;55555;52.136;5.424;2022-08-14T07:46:47;12.85;;;8.55;;
68579;SDS011;55555;52.136;5.424;2022-08-14T07:49:15;12.73;;;8.30;;
68579;SDS011;55555;52.136;5.424;2022-08-14T07:51:43;16.83;;;9.10;;
68579;SDS011;55555;52.136;5.424;2022-08-14T07:54:16;12.82;;;8.18;;
68579;SDS011;55555;52.136;5.424;2022-08-14T07:56:56;10.73;;;8.27;;
68579;SDS011;55555;52.136;5.424;2022-08-14T07:59:26;10.70;;;8.55;;
68579;SDS011;55555;52.136;5.424;2022-08-14T08:02:08;13.05;;;8.45;;
68579;SDS011;55555;52.136;5.424;2022-08-14T08:04:45;13.40;;;8.80;;
68579;SDS011;55555;52.136;5.424;2022-08-14T08:07:19;13.00;;;8.30;;
68579;SDS011;55555;52.136;5.424;2022-08-14T08:09:47;12.07;;;8.17;;
68579;SDS011;55555;52.136;5.424;2022-08-14T08:12:20;11.50;;;7.38;;
68579;SDS011;55555;52.136;5.424;2022-08-14T08:14:54;10.60;;;7.85;;
68579;SDS011;55555;52.136;5.424;2022-08-14T08:17:33;10.50;;;7.55;;
68579;SDS011;55555;52.136;5.424;2022-08-14T08:20:11;12.18;;;7.45;;
68579;SDS011;55555;52.136;5.424;2022-08-14T08:22:48;11.80;;;8.23;;
68579;SDS011;55555;52.136;5.424;2022-08-14T08:25:22;13.43;;;7.28;;
68579;SDS011;55555;52.136;5.424;2022-08-14T08:27:59;11.38;;;7.72;;
68579;SDS011;55555;52.136;5.424;2022-08-14T08:30:54;10.48;;;7.07;;
68579;SDS011;55555;52.136;5.424;2022-08-14T08:33:28;12.00;;;6.93;;
68579;SDS011;55555;52.136;5.424;2022-08-14T08:36:04;10.30;;;6.63;;
68579;SDS011;55555;52.136;5.424;2022-08-14T08:38:43;9.98;;;7.10;;
68579;SDS011;55555;52.136;5.424;2022-08-14T08:41:38;10.02;;;6.68;;
68579;SDS011;55555;52.136;5.424;2022-08-14T08:44:18;10.48;;;6.45;;
68579;SDS011;55555;52.136;5.424;2022-08-14T08:46:59;10.88;;;6.88;;
68579;SDS011;55555;52.136;5.424;2022-08-14T08:49:35;10.87;;;6.10;;
68579;SDS011;55555;52.136;5.424;2022-08-14T08:52:13;9.23;;;6.40;;
68579;SDS011;55555;52.136;5.424;2022-08-14T08:54:54;13.63;;;6.63;;
68579;SDS011;55555;52.136;5.424;2022-08-14T08:57:21;13.50;;;6.60;;
68579;SDS011;55555;52.136;5.424;2022-08-14T08:59:49;10.60;;;7.05;;
68579;SDS011;55555;52.136;5.424;2022-08-14T09:02:23;8.47;;;6.17;;
68579;SDS011;55555;52.136;5.424;2022-08-14T09:04:59;12.82;;;6.45;;
68579;SDS011;55555;52.136;5.424;2022-08-14T09:07:28;16.77;;;5.95;;
68579;SDS011;55555;52.136;5.424;2022-08-14T09:09:56;10.32;;;5.95;;
68579;SDS011;55555;52.136;5.424;2022-08-14T09:12:26;9.93;;;6.30;;
68579;SDS011;55555;52.136;5.424;2022-08-14T09:15:05;8.33;;;6.07;;
68579;SDS011;55555;52.136;5.424;2022-08-14T09:17:37;8.82;;;5.60;;
68579;SDS011;55555;52.136;5.424;2022-08-14T09:20:06;12.13;;;6.75;;
68579;SDS011;55555;52.136;5.424;2022-08-14T09:22:37;13.10;;;5.88;;
68579;SDS011;55555;52.136;5.424;2022-08-14T09:25:13;12.18;;;5.50;;
68579;SDS011;55555;52.136;5.424;2022-08-14T09:27:42;9.70;;;5.07;;
68579;SDS011;55555;52.136;5.424;2022-08-14T09:30:09;8.98;;;5.72;;
68579;SDS011;55555;52.136;5.424;2022-08-14T09:33:07;12.50;;;5.60;;
68579;SDS011;55555;52.136;5.424;2022-08-14T09:35:59;8.38;;;5.53;;
68579;SDS011;55555;52.136;5.424;2022-08-14T09:39:03;10.25;;;5.90;;
68579;SDS011;55555;52.136;5.424;2022-08-14T09:47:47;9.00;;;5.90;;
68579;SDS011;55555;52.136;5.424;2022-08-14T09:50:42;11.43;;;5.88;;
68579;SDS011;55555;52.136;5.424;2022-08-14T09:53:37;8.88;;;6.03;;
68579;SDS011;55555;52.136;5.424;2022-08-14T09:56:29;10.00;;;5.63;;
68579;SDS011;55555;52.136;5.424;2022-08-14T09:59:08;13.07;;;6.18;;
68579;SDS011;55555;52.136;5.424;2022-08-14T10:01:42;10.43;;;6.13;;
68579;SDS011;55555;52.136;5.424;2022-08-14T10:04:22;10.00;;;5.30;;
68579;SDS011;55555;52.136;5.424;2022-08-14T10:07:05;8.80;;;5.57;;
68579;SDS011;55555;52.136;5.424;2022-08-14T10:09:44;9.10;;;5.93;;
68579;SDS011;55555;52.136;5.424;2022-08-14T10:12:40;10.85;;;5.68;;
68579;SDS011;55555;52.136;5.424;2022-08-14T10:15:19;8.85;;;5.50;;
68579;SDS011;55555;52.136;5.424;2022-08-14T10:17:49;8.82;;;5.82;;
68579;SDS011;55555;52.136;5.424;2022-08-14T10:20:35;10.13;;;5.38;;
68579;SDS011;55555;52.136;5.424;2022-08-14T10:23:15;10.33;;;5.43;;
68579;SDS011;55555;52.136;5.424;2022-08-14T10:25:48;9.57;;;5.85;;
68579;SDS011;55555;52.136;5.424;2022-08-14T10:28:20;10.82;;;5.47;;
68579;SDS011;55555;52.136;5.424;2022-08-14T10:34:11;10.27;;;5.40;;
68579;SDS011;55555;52.136;5.424;2022-08-14T10:37:00;9.67;;;5.40;;
68579;SDS011;55555;52.136;5.424;2022-08-14T10:39:40;10.82;;;4.82;;
68579;SDS011;55555;52.136;5.424;2022-08-14T10:42:38;7.38;;;4.80;;
68579;SDS011;55555;52.136;5.424;2022-08-14T10:45:16;8.32;;;4.13;;
68579;SDS011;55555;52.136;5.424;2022-08-14T10:48:01;6.88;;;4.53;;
68579;SDS011;55555;52.136;5.424;2022-08-14T10:50:58;7.77;;;4.60;;
68579;SDS011;55555;52.136;5.424;2022-08-14T10:53:26;8.55;;;4.43;;
68579;SDS011;55555;52.136;5.424;2022-08-14T10:56:07;7.68;;;3.97;;
68579;SDS011;55555;52.136;5.424;2022-08-14T10:58:59;7.53;;;4.20;;
68579;SDS011;55555;52.136;5.424;2022-08-14T11:01:34;7.57;;;4.15;;
68579;SDS011;55555;52.136;5.424;2022-08-14T11:04:18;10.07;;;4.23;;
68579;SDS011;55555;52.136;5.424;2022-08-14T11:06:56;8.00;;;4.43;;
68579;SDS011;55555;52.136;5.424;2022-08-14T11:09:23;8.73;;;4.50;;
68579;SDS011;55555;52.136;5.424;2022-08-14T11:11:56;6.32;;;3.80;;
68579;SDS011;55555;52.136;5.424;2022-08-14T11:14:53;7.40;;;4.38;;
68579;SDS011;55555;52.136;5.424;2022-08-14T11:17:29;10.03;;;3.87;;
68579;SDS011;55555;52.136;5.424;2022-08-14T11:19:59;9.90;;;4.30;;
68579;SDS011;55555;52.136;5.424;2022-08-14T11:22:29;7.88;;;3.90;;
68579;SDS011;55555;52.136;5.424;2022-08-14T11:25:18;5.95;;;3.65;;
68579;SDS011;55555;52.136;5.424;2022-08-14T11:27:49;9.32;;;3.95;;
68579;SDS011;55555;52.136;5.424;2022-08-14T11:30:21;8.13;;;3.23;;
68579;SDS011;55555;52.136;5.424;2022-08-14T11:33:10;8.80;;;3.72;;
68579;SDS011;55555;52.136;5.424;2022-08-14T11:35:38;7.45;;;3.90;;
68579;SDS011;55555;52.136;5.424;2022-08-14T11:38:13;7.60;;;3.55;;
68579;SDS011;55555;52.136;5.424;2022-08-14T11:40:43;8.25;;;4.13;;
68579;SDS011;55555;52.136;5.424;2022-08-14T11:43:12;11.27;;;6.63;;
68579;SDS011;55555;52.136;5.424;2022-08-14T11:45:44;7.45;;;4.95;;
68579;SDS011;55555;52.136;5.424;2022-08-14T11:51:15;7.35;;;3.80;;
68579;SDS011;55555;52.136;5.424;2022-08-14T11:53:59;8.02;;;3.67;;
68579;SDS011;55555;52.136;5.424;2022-08-14T11:56:38;6.13;;;3.80;;
68579;SDS011;55555;52.136;5.424;2022-08-14T11:59:07;5.90;;;3.92;;
68579;SDS011;55555;52.136;5.424;2022-08-14T12:01:43;10.23;;;6.50;;
68579;SDS011;55555;52.136;5.424;2022-08-14T12:04:15;9.18;;;5.28;;
68579;SDS011;55555;52.136;5.424;2022-08-14T12:06:58;7.75;;;4.18;;
68579;SDS011;55555;52.136;5.424;2022-08-14T12:09:27;8.97;;;4.40;;
68579;SDS011;55555;52.136;5.424;2022-08-14T12:11:59;7.07;;;3.83;;
68579;SDS011;55555;52.136;5.424;2022-08-14T12:15:01;6.15;;;3.65;;
68579;SDS011;55555;52.136;5.424;2022-08-14T12:17:42;7.80;;;4.90;;
68579;SDS011;55555;52.136;5.424;2022-08-14T12:20:27;7.47;;;3.50;;
68579;SDS011;55555;52.136;5.424;2022-08-14T12:23:20;8.63;;;4.80;;
68579;SDS011;55555;52.136;5.424;2022-08-14T12:26:03;7.88;;;3.88;;
68579;SDS011;55555;52.136;5.424;2022-08-14T12:29:06;5.95;;;3.50;;
68579;SDS011;55555;52.136;5.424;2022-08-14T12:31:39;7.93;;;3.72;;
68579;SDS011;55555;52.136;5.424;2022-08-14T12:34:12;8.27;;;4.10;;
68579;SDS011;55555;52.136;5.424;2022-08-14T12:36:45;6.63;;;4.20;;
68579;SDS011;55555;52.136;5.424;2022-08-14T12:39:17;6.72;;;4.22;;
68579;SDS011;55555;52.136;5.424;2022-08-14T12:41:50;8.00;;;4.10;;
68579;SDS011;55555;52.136;5.424;2022-08-14T12:44:29;7.18;;;4.00;;
68579;SDS011;55555;52.136;5.424;2022-08-14T12:49:49;9.37;;;4.07;;
68579;SDS011;55555;52.136;5.424;2022-08-14T12:52:29;8.57;;;3.90;;
68579;SDS011;55555;52.136;5.424;2022-08-14T12:55:25;7.82;;;4.15;;
68579;SDS011;55555;52.136;5.424;2022-08-14T12:58:12;8.23;;;5.40;;
68579;SDS011;55555;52.136;5.424;2022-08-14T13:00:59;6.82;;;4.10;;
68579;SDS011;55555;52.136;5.424;2022-08-14T13:03:45;7.57;;;4.40;;
68579;SDS011;55555;52.136;5.424;2022-08-14T13:06:17;12.07;;;3.95;;
68579;SDS011;55555;52.136;5.424;2022-08-14T13:08:49;6.97;;;3.75;;
68579;SDS011;55555;52.136;5.424;2022-08-14T13:11:25;10.80;;;4.10;;
68579;SDS011;55555;52.136;5.424;2022-08-14T13:14:11;6.90;;;4.03;;
68579;SDS011;55555;52.136;5.424;2022-08-14T13:16:55;8.47;;;4.40;;
68579;SDS011;55555;52.136;5.424;2022-08-14T13:19:24;9.23;;;4.25;;
68579;SDS011;55555;52.136;5.424;2022-08-14T13:21:53;7.38;;;4.18;;
68579;SDS011;55555;52.136;5.424;2022-08-14T13:24:31;8.18;;;4.28;;
68579;SDS011;55555;52.136;5.424;2022-08-14T13:26:59;9.35;;;4.57;;
68579;SDS011;55555;52.136;5.424;2022-08-14T13:29:29;8.20;;;5.07;;
68579;SDS011;55555;52.136;5.424;2022-08-14T13:32:05;6.97;;;4.38;;
68579;SDS011;55555;52.136;5.424;2022-08-14T13:34:34;7.55;;;4.50;;
68579;SDS011;55555;52.136;5.424;2022-08-14T13:37:02;9.07;;;4.53;;
68579;SDS011;55555;52.136;5.424;2022-08-14T13:39:32;8.85;;;4.10;;
68579;SDS011;55555;52.136;5.424;2022-08-14T13:42:03;8.13;;;4.37;;
68579;SDS011;55555;52.136;5.424;2022-08-14T13:44:39;8.75;;;4.50;;
68579;SDS011;55555;52.136;5.424;2022-08-14T13:47:08;8.27;;;4.35;;
68579;SDS011;55555;52.136;5.424;2022-08-14T13:49:40;6.60;;;4.20;;
68579;SDS011;55555;52.136;5.424;2022-08-14T13:52:23;6.60;;;4.45;;
68579;SDS011;55555;52.136;5.424;2022-08-14T13:55:12;8.03;;;4.50;;
68579;SDS011;55555;52.136;5.424;2022-08-14T13:57:45;8.00;;;4.85;;
68579;SDS011;55555;52.136;5.424;2022-08-14T14:00:30;10.90;;;4.90;;
68579;SDS011;55555;52.136;5.424;2022-08-14T14:03:20;8.35;;;4.82;;
68579;SDS011;55555;52.136;5.424;2022-08-14T14:05:49;8.00;;;4.80;;
68579;SDS011;55555;52.136;5.424;2022-08-14T14:08:22;10.37;;;4.67;;
68579;SDS011;55555;52.136;5.424;2022-08-14T14:11:10;6.43;;;4.53;;
68579;SDS011;55555;52.136;5.424;2022-08-14T14:13:41;8.85;;;4.53;;
68579;SDS011;55555;52.136;5.424;2022-08-14T14:16:11;8.30;;;4.53;;
68579;SDS011;55555;52.136;5.424;2022-08-14T14:18:55;9.18;;;4.60;;
68579;SDS011;55555;52.136;5.424;2022-08-14T14:21:35;8.40;;;4.87;;
68579;SDS011;55555;52.136;5.424;2022-08-14T14:24:07;7.40;;;4.68;;
68579;SDS011;55555;52.136;5.424;2022-08-14T14:26:44;9.45;;;4.50;;
68579;SDS011;55555;52.136;5.424;2022-08-14T14:29:16;11.60;;;5.32;;
68579;SDS011;55555;52.136;5.424;2022-08-14T14:31:51;7.75;;;4.38;;
68579;SDS011;55555;52.136;5.424;2022-08-14T14:34:19;8.03;;;4.07;;
68579;SDS011;55555;52.136;5.424;2022-08-14T14:36:56;9.07;;;4.63;;
68579;SDS011;55555;52.136;5.424;2022-08-14T14:39:28;8.50;;;4.57;;
68579;SDS011;55555;52.136;5.424;2022-08-14T14:42:18;8.63;;;4.47;;
68579;SDS011;55555;52.136;5.424;2022-08-14T14:45:05;7.68;;;5.07;;
68579;SDS011;55555;52.136;5.424;2022-08-14T14:47:41;7.47;;;4.70;;
68579;SDS011;55555;52.136;5.424;2022-08-14T14:50:14;9.00;;;5.40;;
68579;SDS011;55555;52.136;5.424;2022-08-14T14:52:42;9.32;;;5.47;;
68579;SDS011;55555;52.136;5.424;2022-08-14T14:55:10;9.30;;;5.10;;
68579;SDS011;55555;52.136;5.424;2022-08-14T14:57:43;10.55;;;5.43;;
68579;SDS011;55555;52.136;5.424;2022-08-14T15:00:19;8.67;;;4.30;;
68579;SDS011;55555;52.136;5.424;2022-08-14T15:02:51;14.63;;;11.55;;
68579;SDS011;55555;52.136;5.424;2022-08-14T15:05:24;19.05;;;16.92;;
68579;SDS011;55555;52.136;5.424;2022-08-14T15:07:53;10.60;;;7.07;;
68579;SDS011;55555;52.136;5.424;2022-08-14T15:10:21;6.70;;;4.60;;
68579;SDS011;55555;52.136;5.424;2022-08-14T15:12:57;8.70;;;4.83;;
68579;SDS011;55555;52.136;5.424;2022-08-14T15:15:31;13.35;;;4.97;;
68579;SDS011;55555;52.136;5.424;2022-08-14T15:18:05;9.40;;;4.63;;
68579;SDS011;55555;52.136;5.424;2022-08-14T15:20:53;10.88;;;4.88;;
68579;SDS011;55555;52.136;5.424;2022-08-14T15:23:22;10.93;;;4.80;;
68579;SDS011;55555;52.136;5.424;2022-08-14T15:26:09;7.27;;;4.67;;
68579;SDS011;55555;52.136;5.424;2022-08-14T15:28:48;6.60;;;4.50;;
68579;SDS011;55555;52.136;5.424;2022-08-14T15:31:30;8.20;;;4.68;;
68579;SDS011;55555;52.136;5.424;2022-08-14T15:34:02;8.68;;;5.03;;
68579;SDS011;55555;52.136;5.424;2022-08-14T15:36:57;10.07;;;6.03;;
68579;SDS011;55555;52.136;5.424;2022-08-14T15:39:25;8.20;;;4.53;;
68579;SDS011;55555;52.136;5.424;2022-08-14T15:42:00;9.40;;;4.43;;
68579;SDS011;55555;52.136;5.424;2022-08-14T15:44:40;8.52;;;4.97;;
68579;SDS011;55555;52.136;5.424;2022-08-14T15:47:23;8.15;;;5.00;;
68579;SDS011;55555;52.136;5.424;2022-08-14T15:49:54;7.70;;;4.80;;